Main page
METAR-TAF:

METAR-TAF

Airports :

San Sebastián, Spain

San Sebastián Airport

latitude: 43-21N, longitude: 001-48W, elevation: 5 m

Current weather observation

The report was made 32 minutes ago, at 23:30 UTC
Wind 1 kt from the Southwest
Temperature 12°C
Humidity 94%
Pressure 1025 hPa
Visibility: 9000 m

METAR: LESO 192330Z AUTO 22001KT 9000 NCD 12/11 Q1025

Time: 02:02 (00:02 UTC)

Forecast

The report was made 1 hour and 2 minutes ago, at 23:00 UTC
Forecast valid from 20 at 00 UTC to 20 at 24 UTC
Wind 4 kt from variable directions
Visibility 10 km or more
Few clouds at a height of 3000 ft
Temporary
from 20 at 11 UTC to 20 at 18 UTC
Wind 10 kt from the Northeast

TAF: LESO 192300Z 2000/2024 VRB04KT 9999 FEW030 TX23/2014Z TN11/2006Z TEMPO 2011/2018 05010KT

Weather observations and forecasts of more than 4000 airports (METAR and TAF reports).

The available stations are represented by yellow and red dots on the map.

Hover mouse over dot to see the name of the station.

Then click to see weather observations and forecasts.

To change the map : click on the green buttons with a black cross to zoom in, on the green button with a dash to zoom out, or on the green arrows for adjacent maps.


METAR-TAF: